createdAt,value
2019-03-10T00:00:32.778Z,26.30
2019-03-10T00:03:01.215Z,19.80
2019-03-10T00:05:29.756Z,21.25
2019-03-10T00:07:58.222Z,19.27
2019-03-10T00:10:26.682Z,20.48
2019-03-10T00:12:55.135Z,15.18
2019-03-10T00:15:23.785Z,21.90
2019-03-10T00:17:52.271Z,19.57
2019-03-10T00:20:20.749Z,22.48
2019-03-10T00:22:49.268Z,23.50
2019-03-10T00:25:17.731Z,34.80
2019-03-10T00:27:46.220Z,43.87
2019-03-10T00:30:18.310Z,47.33
2019-03-10T00:32:46.761Z,44.93
2019-03-10T00:35:15.216Z,24.10
2019-03-10T00:37:43.674Z,26.05
2019-03-10T00:40:48.524Z,30.82
2019-03-10T00:43:54.647Z,28.17
2019-03-10T00:46:51.952Z,25.30
2019-03-10T00:49:42.615Z,36.80
2019-03-10T00:52:17.284Z,30.32
2019-03-10T00:54:45.733Z,25.65
2019-03-10T00:57:14.188Z,22.50
2019-03-10T00:59:42.673Z,21.87
2019-03-10T01:02:11.133Z,22.20
2019-03-10T01:04:39.598Z,23.65
2019-03-10T01:07:08.345Z,33.05
2019-03-10T01:09:36.927Z,42.15
2019-03-10T01:12:05.843Z,35.23
2019-03-10T01:14:34.515Z,30.88
2019-03-10T01:19:39.513Z,35.43
2019-03-10T01:22:26.670Z,32.45
2019-03-10T01:24:55.258Z,44.73
2019-03-10T01:27:24.063Z,38.10
2019-03-10T01:32:54.187Z,33.78
2019-03-10T01:35:30.681Z,25.40
2019-03-10T01:39:22.389Z,29.27
2019-03-10T01:40:34.599Z,36.03
2019-03-10T01:43:03.379Z,28.67
2019-03-10T01:45:32.079Z,27.90
2019-03-10T01:48:00.536Z,26.52
2019-03-10T01:50:29.090Z,27.45
2019-03-10T01:53:00.774Z,31.97
2019-03-10T01:55:29.251Z,29.30
2019-03-10T01:57:57.939Z,28.77
2019-03-10T02:00:29.332Z,32.38
2019-03-10T02:03:07.111Z,28.90
2019-03-10T02:05:36.004Z,36.23
2019-03-10T02:08:07.659Z,32.15
2019-03-10T02:10:42.972Z,25.50
2019-03-10T02:13:11.578Z,27.85
2019-03-10T02:18:38.222Z,37.67
2019-03-10T02:21:06.792Z,32.15
2019-03-10T02:23:35.417Z,28.25
2019-03-10T02:26:03.963Z,28.98
2019-03-10T02:28:32.412Z,26.30
2019-03-10T02:31:00.874Z,35.60
2019-03-10T02:33:29.312Z,32.55
2019-03-10T02:35:57.951Z,30.25
2019-03-10T02:38:26.394Z,27.82
2019-03-10T02:40:54.863Z,26.87
2019-03-10T02:43:28.819Z,28.25
2019-03-10T02:45:56.529Z,28.07
2019-03-10T02:48:25.191Z,26.80
2019-03-10T02:50:53.717Z,32.78
2019-03-10T02:53:22.512Z,28.92
2019-03-10T02:55:51.223Z,30.62
2019-03-10T02:58:20.022Z,30.43
2019-03-10T03:00:48.564Z,23.07
2019-03-10T03:03:17.075Z,30.35
2019-03-10T03:05:48.110Z,29.30
2019-03-10T03:08:17.131Z,37.55
2019-03-10T03:10:45.743Z,29.12
2019-03-10T03:13:14.214Z,29.23
2019-03-10T03:15:42.755Z,31.42
2019-03-10T03:18:11.543Z,24.90
2019-03-10T03:20:40.346Z,27.25
2019-03-10T03:23:08.867Z,27.45
2019-03-10T03:25:37.469Z,32.55
2019-03-10T03:28:06.085Z,28.60
2019-03-10T03:30:34.510Z,45.63
2019-03-10T03:33:03.261Z,34.08
2019-03-10T03:35:59.113Z,30.02
2019-03-10T03:38:39.944Z,27.62
2019-03-10T03:41:14.067Z,28.57
2019-03-10T03:43:42.751Z,26.30
2019-03-10T03:46:11.138Z,29.40
2019-03-10T03:48:41.357Z,34.23
2019-03-10T03:51:09.993Z,30.00
2019-03-10T03:53:38.706Z,29.90
2019-03-10T03:56:11.876Z,26.15
2019-03-10T03:58:40.342Z,29.57
2019-03-10T04:01:16.315Z,45.20
2019-03-10T04:03:44.783Z,28.60
2019-03-10T04:06:13.249Z,28.95
2019-03-10T04:08:44.491Z,30.02
2019-03-10T04:11:12.996Z,38.40
2019-03-10T04:13:41.548Z,31.77
2019-03-10T04:16:11.764Z,21.45
2019-03-10T04:18:40.306Z,26.35
2019-03-10T04:21:08.899Z,26.48
2019-03-10T04:23:37.455Z,29.80
2019-03-10T04:26:10.608Z,25.75
2019-03-10T04:28:39.179Z,25.60
2019-03-10T04:31:07.785Z,19.67
2019-03-10T04:33:36.618Z,22.45
2019-03-10T04:36:05.096Z,20.20
2019-03-10T04:38:33.845Z,36.28
2019-03-10T04:41:02.295Z,26.60
2019-03-10T04:43:30.865Z,30.95
2019-03-10T04:45:59.622Z,24.07
2019-03-10T04:48:28.195Z,22.77
2019-03-10T04:50:57.135Z,26.02
2019-03-10T04:53:25.640Z,31.17
2019-03-10T04:55:55.823Z,33.13
2019-03-10T04:58:25.666Z,27.93
2019-03-10T05:00:55.743Z,30.57
2019-03-10T05:03:24.272Z,29.07
2019-03-10T05:05:52.787Z,33.92
2019-03-10T05:08:21.255Z,34.48
2019-03-10T05:10:49.693Z,35.38
2019-03-10T05:13:18.147Z,32.67
2019-03-10T05:15:46.585Z,26.17
2019-03-10T05:18:15.070Z,33.33
2019-03-10T05:20:43.513Z,28.12
2019-03-10T05:23:38.622Z,31.50
2019-03-10T05:26:07.086Z,31.70
2019-03-10T05:28:38.205Z,35.63
2019-03-10T05:31:06.708Z,28.07
2019-03-10T05:33:35.162Z,23.20
2019-03-10T05:36:03.711Z,31.70
2019-03-10T05:38:32.255Z,28.15
2019-03-10T05:41:00.910Z,27.32
2019-03-10T05:43:29.564Z,24.72
2019-03-10T05:45:58.011Z,31.15
2019-03-10T05:48:26.527Z,32.00
2019-03-10T05:50:55.021Z,27.95
2019-03-10T05:53:23.503Z,30.32
2019-03-10T05:55:52.129Z,30.77
2019-03-10T05:58:20.566Z,28.92
2019-03-10T06:00:49.250Z,27.42
2019-03-10T06:03:17.913Z,34.05
2019-03-10T06:05:46.620Z,33.63
2019-03-10T06:08:15.199Z,31.12
2019-03-10T06:10:43.622Z,35.43
2019-03-10T06:13:12.074Z,29.45
2019-03-10T06:15:40.536Z,29.02
2019-03-10T06:18:13.495Z,28.40
2019-03-10T06:20:39.316Z,33.53
2019-03-10T06:23:07.757Z,28.05
2019-03-10T06:25:36.230Z,43.15
2019-03-10T06:28:07.629Z,32.88
2019-03-10T06:30:39.444Z,35.13
2019-03-10T06:33:07.890Z,36.17
2019-03-10T06:38:22.389Z,35.85
2019-03-10T06:40:54.007Z,34.80
2019-03-10T06:43:22.777Z,43.42
2019-03-10T06:45:51.245Z,33.85
2019-03-10T06:48:19.761Z,32.98
2019-03-10T06:50:48.211Z,40.30
2019-03-10T06:53:16.753Z,37.50
2019-03-10T06:55:45.201Z,35.73
2019-03-10T06:58:13.648Z,33.92
2019-03-10T07:00:42.558Z,38.92
2019-03-10T07:03:14.141Z,30.97
2019-03-10T07:05:42.684Z,37.80
2019-03-10T07:08:13.833Z,36.00
2019-03-10T07:10:42.275Z,35.98
2019-03-10T07:13:10.918Z,31.52
2019-03-10T07:15:39.486Z,35.13
2019-03-10T07:18:07.930Z,30.32
2019-03-10T07:20:37.358Z,36.08
2019-03-10T07:23:07.464Z,34.67
2019-03-10T07:25:35.931Z,35.05
2019-03-10T07:28:11.769Z,24.87
2019-03-10T07:30:41.867Z,41.25
2019-03-10T07:33:20.849Z,34.38
2019-03-10T07:36:07.219Z,40.88
2019-03-10T07:38:55.709Z,36.83
2019-03-10T07:41:41.898Z,34.40
2019-03-10T07:44:12.016Z,40.50
2019-03-10T07:46:50.834Z,35.50
2019-03-10T07:49:35.740Z,32.00
2019-03-10T07:52:21.950Z,35.58
2019-03-10T07:55:07.952Z,36.45
2019-03-10T07:57:46.781Z,43.90
2019-03-10T08:00:31.439Z,35.83
2019-03-10T08:03:01.578Z,40.23
2019-03-10T08:05:47.601Z,32.93
2019-03-10T08:08:17.753Z,35.88
2019-03-10T08:11:03.853Z,33.33
2019-03-10T08:13:45.817Z,33.33
2019-03-10T08:16:15.935Z,31.48
2019-03-10T08:18:57.861Z,36.98
2019-03-10T08:21:33.885Z,28.73
2019-03-10T08:24:05.438Z,29.05
2019-03-10T08:26:47.572Z,27.87
2019-03-10T08:29:33.937Z,27.30
2019-03-10T08:32:06.712Z,33.80
2019-03-10T08:34:36.841Z,31.07
2019-03-10T08:37:12.734Z,25.62
2019-03-10T08:39:42.823Z,31.07
2019-03-10T08:42:20.652Z,29.50
2019-03-10T08:45:02.449Z,29.63
2019-03-10T08:47:38.293Z,31.45
2019-03-10T08:50:10.370Z,30.32
2019-03-10T08:52:52.267Z,30.08
2019-03-10T08:55:28.251Z,28.77
2019-03-10T08:58:01.071Z,32.88
2019-03-10T09:00:46.332Z,25.00
2019-03-10T09:03:22.355Z,29.07
2019-03-10T09:05:55.206Z,36.83
2019-03-10T09:08:37.163Z,24.90
2019-03-10T09:11:23.231Z,31.65
2019-03-10T09:13:56.081Z,22.73
2019-03-10T09:16:32.103Z,22.55
2019-03-10T09:19:02.244Z,28.27
2019-03-10T09:21:32.412Z,26.80
2019-03-10T09:24:05.252Z,22.45
2019-03-10T09:26:41.282Z,26.37
2019-03-10T09:29:23.162Z,25.37
2019-03-10T09:31:58.984Z,21.02
2019-03-10T09:34:34.779Z,28.52
2019-03-10T09:37:21.060Z,28.73
2019-03-10T09:39:54.123Z,25.92
2019-03-10T09:42:24.329Z,22.13
2019-03-10T09:45:10.565Z,21.07
2019-03-10T09:47:46.504Z,27.02
2019-03-10T09:50:19.347Z,23.98
2019-03-10T09:53:05.505Z,27.87
2019-03-10T09:55:38.440Z,22.67
2019-03-10T09:58:08.584Z,19.90
2019-03-10T10:00:44.543Z,21.77
2019-03-10T10:03:26.524Z,25.02
2019-03-10T10:05:56.659Z,25.30
2019-03-10T10:08:26.780Z,20.00
2019-03-10T10:10:59.629Z,28.95
2019-03-10T10:13:29.739Z,20.10
2019-03-10T10:16:11.727Z,23.15
2019-03-10T10:18:47.604Z,24.10
2019-03-10T10:21:26.419Z,25.15
2019-03-10T10:23:59.197Z,24.27
2019-03-10T10:26:41.107Z,16.82
2019-03-10T10:29:20.095Z,28.20
2019-03-10T10:31:52.870Z,22.22
2019-03-10T10:34:23.016Z,16.52
2019-03-10T10:36:53.123Z,17.92
2019-03-10T10:39:23.280Z,23.47
2019-03-10T10:41:53.389Z,26.75
2019-03-10T10:44:39.469Z,19.48
2019-03-10T10:47:18.306Z,24.65
2019-03-10T10:49:57.157Z,15.72
2019-03-10T10:52:29.958Z,19.45
2019-03-10T10:55:11.921Z,18.80
2019-03-10T10:57:45.039Z,15.98
2019-03-10T11:00:19.584Z,19.20
2019-03-10T11:02:52.378Z,23.38
2019-03-10T11:05:28.336Z,19.27
2019-03-10T11:07:58.456Z,17.85
2019-03-10T11:10:44.723Z,19.00
2019-03-10T11:13:14.849Z,18.27
2019-03-10T11:15:53.486Z,18.07
2019-03-10T11:18:42.153Z,16.42
2019-03-10T11:21:15.106Z,25.27
2019-03-10T11:23:51.055Z,17.40
2019-03-10T11:26:21.240Z,16.67
2019-03-10T11:28:54.048Z,14.50
2019-03-10T11:31:29.886Z,16.60
2019-03-10T11:34:11.721Z,17.02
2019-03-10T11:36:57.849Z,21.95
2019-03-10T11:39:43.946Z,21.27
2019-03-10T11:42:14.126Z,17.10
2019-03-10T11:44:44.338Z,18.90
2019-03-10T11:47:20.442Z,13.32
2019-03-10T11:49:50.578Z,17.70
2019-03-10T11:52:20.834Z,14.40
2019-03-10T11:54:51.026Z,22.75
2019-03-10T11:57:30.113Z,15.40
2019-03-10T12:00:00.364Z,14.90
2019-03-10T12:02:39.506Z,18.15
2019-03-10T12:05:23.725Z,16.95
2019-03-10T12:07:59.638Z,14.65
2019-03-10T12:10:28.156Z,20.75
2019-03-10T12:12:56.695Z,15.63
2019-03-10T12:15:25.206Z,20.60
2019-03-10T12:17:53.707Z,21.48
2019-03-10T12:20:22.207Z,18.62
2019-03-10T12:22:50.687Z,18.25
2019-03-10T12:25:19.203Z,23.65
2019-03-10T12:27:48.774Z,18.82
2019-03-10T12:30:17.662Z,16.48
2019-03-10T12:32:46.135Z,12.85
2019-03-10T12:35:14.613Z,23.12
2019-03-10T12:37:43.100Z,22.20
2019-03-10T12:40:12.406Z,22.87
2019-03-10T12:42:40.910Z,23.20
2019-03-10T12:45:10.722Z,24.23
2019-03-10T12:47:39.264Z,19.82
2019-03-10T12:50:11.043Z,15.00
2019-03-10T12:52:39.531Z,13.10
2019-03-10T12:55:09.355Z,16.85
2019-03-10T12:57:37.855Z,15.78
2019-03-10T13:00:13.530Z,21.02
2019-03-10T13:02:42.219Z,25.88
2019-03-10T13:05:10.982Z,21.62
2019-03-10T13:07:39.612Z,21.50
2019-03-10T13:10:08.189Z,17.17
2019-03-10T13:12:36.875Z,19.45
2019-03-10T13:15:09.040Z,17.65
2019-03-10T13:17:37.628Z,21.90
2019-03-10T13:20:09.163Z,16.57
2019-03-10T13:22:37.662Z,13.85
2019-03-10T13:25:08.580Z,21.10
2019-03-10T13:27:37.109Z,18.42
2019-03-10T13:30:08.199Z,15.53
2019-03-10T13:32:36.725Z,34.58
2019-03-10T13:35:05.381Z,35.68
2019-03-10T13:37:34.036Z,20.43
2019-03-10T13:40:02.526Z,17.42
2019-03-10T13:42:31.022Z,17.20
2019-03-10T13:45:01.138Z,19.70
2019-03-10T13:47:29.609Z,16.35
2019-03-10T13:49:58.113Z,21.45
2019-03-10T13:52:26.562Z,15.70
2019-03-10T13:54:58.325Z,12.93
2019-03-10T13:57:26.958Z,16.62
2019-03-10T13:59:56.104Z,15.88
2019-03-10T14:02:24.619Z,16.42
2019-03-10T14:04:53.145Z,14.28
2019-03-10T14:07:21.639Z,11.43
2019-03-10T14:09:50.118Z,16.87
2019-03-10T14:12:18.597Z,16.50
2019-03-10T14:14:47.058Z,18.57
2019-03-10T14:17:15.557Z,11.53
2019-03-10T14:19:44.023Z,15.58
2019-03-10T14:22:12.534Z,12.35
2019-03-10T14:24:40.994Z,17.20
2019-03-10T14:27:09.494Z,13.58
2019-03-10T14:29:38.134Z,18.20
2019-03-10T14:32:06.653Z,14.53
2019-03-10T14:34:35.338Z,17.32
2019-03-10T14:37:03.779Z,11.97
2019-03-10T14:39:32.377Z,11.33
2019-03-10T14:42:00.842Z,11.93
2019-03-10T14:44:29.432Z,9.08
2019-03-10T14:46:57.907Z,15.28
2019-03-10T14:49:26.404Z,12.73
2019-03-10T14:51:54.984Z,10.90
2019-03-10T14:54:23.925Z,10.98
2019-03-10T14:56:52.506Z,11.50
2019-03-10T14:59:21.006Z,17.15
2019-03-10T15:01:49.496Z,10.25
2019-03-10T15:04:18.065Z,11.08
2019-03-10T15:06:46.721Z,17.27
2019-03-10T15:09:15.254Z,12.00
2019-03-10T15:11:43.931Z,13.38
2019-03-10T15:14:12.590Z,12.10
2019-03-10T15:16:41.245Z,14.53
2019-03-10T15:19:12.039Z,8.83
2019-03-10T15:21:40.479Z,8.63
2019-03-10T15:24:08.931Z,7.20
2019-03-10T15:26:45.288Z,12.58
2019-03-10T15:29:08.956Z,12.00
2019-03-10T15:31:37.641Z,12.53
2019-03-10T15:34:06.300Z,10.25
2019-03-10T15:36:34.833Z,11.73
2019-03-10T15:39:04.083Z,14.03
2019-03-10T15:41:32.547Z,9.83
2019-03-10T15:44:01.240Z,13.60
2019-03-10T15:46:29.703Z,16.35
2019-03-10T15:48:58.704Z,16.65
2019-03-10T15:51:27.306Z,15.65
2019-03-10T15:53:55.788Z,11.63
2019-03-10T15:56:24.321Z,16.27
2019-03-10T15:58:52.786Z,13.38
2019-03-10T16:01:21.301Z,17.02
2019-03-10T16:03:49.782Z,17.00
2019-03-10T16:06:18.468Z,19.82
2019-03-10T16:08:46.937Z,15.68
2019-03-10T16:11:15.937Z,17.73
2019-03-10T16:13:44.586Z,15.18
2019-03-10T16:16:13.098Z,19.73
2019-03-10T16:18:41.806Z,16.93
2019-03-10T16:21:10.292Z,16.62
2019-03-10T16:23:38.862Z,16.50
2019-03-10T16:26:07.428Z,17.98
2019-03-10T16:28:36.085Z,16.67
2019-03-10T16:31:04.562Z,13.40
2019-03-10T16:33:33.510Z,14.35
2019-03-10T16:36:02.103Z,16.67
2019-03-10T16:38:30.636Z,18.23
2019-03-10T16:40:59.105Z,17.82
2019-03-10T16:43:27.586Z,17.85
2019-03-10T16:45:56.093Z,17.10
2019-03-10T16:48:24.571Z,17.98
2019-03-10T16:50:53.061Z,14.70
2019-03-10T16:53:21.569Z,16.85
2019-03-10T16:55:50.101Z,13.43
2019-03-10T16:58:18.904Z,15.68
2019-03-10T17:00:47.401Z,17.62
2019-03-10T17:03:15.877Z,17.05
2019-03-10T17:05:44.423Z,16.87
2019-03-10T17:08:12.897Z,19.77
2019-03-10T17:10:43.187Z,18.10
2019-03-10T17:13:11.678Z,20.77
2019-03-10T17:15:40.193Z,14.93
2019-03-10T17:18:08.703Z,17.65
2019-03-10T17:20:37.189Z,17.40
2019-03-10T17:23:05.705Z,21.12
2019-03-10T17:25:34.198Z,24.35
2019-03-10T17:28:02.713Z,17.90
2019-03-10T17:30:31.303Z,15.78
2019-03-10T17:32:59.883Z,16.37
2019-03-10T17:35:28.491Z,23.85
2019-03-10T17:37:57.157Z,22.87
2019-03-10T17:40:25.958Z,21.35
2019-03-10T17:42:54.551Z,17.42
2019-03-10T17:45:26.597Z,24.10
2019-03-10T17:47:55.128Z,18.25
2019-03-10T17:50:23.630Z,19.50
2019-03-10T17:52:52.161Z,23.87
2019-03-10T17:55:24.937Z,24.00
2019-03-10T17:57:53.506Z,23.85
2019-03-10T18:00:23.986Z,22.30
2019-03-10T18:02:53.362Z,24.12
2019-03-10T18:05:21.932Z,24.70
2019-03-10T18:07:50.577Z,22.73
2019-03-10T18:10:19.431Z,22.73
2019-03-10T18:12:47.964Z,26.70
2019-03-10T18:15:18.840Z,23.90
2019-03-10T18:17:47.356Z,18.57
2019-03-10T18:20:20.292Z,23.65
2019-03-10T18:22:48.792Z,43.25
2019-03-10T18:25:17.319Z,42.15
2019-03-10T18:27:45.983Z,40.90
2019-03-10T18:30:20.287Z,35.98
2019-03-10T18:32:48.812Z,40.58
2019-03-10T18:35:17.307Z,29.05
2019-03-10T18:37:45.907Z,35.92
2019-03-10T18:40:21.311Z,27.95
2019-03-10T18:42:49.786Z,22.77
2019-03-10T18:45:19.123Z,25.00
2019-03-10T18:47:47.687Z,26.35
2019-03-10T18:50:18.799Z,29.07
2019-03-10T18:52:47.348Z,27.13
2019-03-10T18:55:16.683Z,24.32
2019-03-10T18:57:45.316Z,26.17
2019-03-10T19:00:31.418Z,37.80
2019-03-10T19:02:59.895Z,35.83
2019-03-10T19:05:28.659Z,34.70
2019-03-10T19:07:57.385Z,26.20
2019-03-10T19:10:26.140Z,29.05
2019-03-10T19:12:56.501Z,25.70
2019-03-10T19:15:26.328Z,30.45
2019-03-10T19:17:56.597Z,25.72
2019-03-10T19:20:25.087Z,43.15
2019-03-10T19:22:53.670Z,30.40
2019-03-10T19:25:22.253Z,35.88
2019-03-10T19:27:50.786Z,32.03
2019-03-10T19:30:22.717Z,32.67
2019-03-10T19:32:51.373Z,38.40
2019-03-10T19:35:19.872Z,36.85
2019-03-10T19:37:48.381Z,30.05
2019-03-10T19:40:21.141Z,35.88
2019-03-10T19:42:49.673Z,32.67
2019-03-10T19:45:19.271Z,33.18
2019-03-10T19:47:47.765Z,40.73
2019-03-10T19:50:21.471Z,37.00
2019-03-10T19:52:50.133Z,41.10
2019-03-10T19:55:18.682Z,31.27
2019-03-10T19:57:47.173Z,37.90
2019-03-10T20:00:22.165Z,41.33
2019-03-10T20:02:52.029Z,37.67
2019-03-10T20:05:20.523Z,39.88
2019-03-10T20:07:49.104Z,48.95
2019-03-10T20:10:19.716Z,51.28
2019-03-10T20:12:48.190Z,39.88
2019-03-10T20:15:18.054Z,42.43
2019-03-10T20:17:46.543Z,50.67
2019-03-10T20:20:16.764Z,41.83
2019-03-10T20:22:45.300Z,49.38
2019-03-10T20:25:15.481Z,38.60
2019-03-10T20:27:44.409Z,43.68
2019-03-10T20:30:16.474Z,42.83
2019-03-10T20:32:44.984Z,46.25
2019-03-10T20:35:13.458Z,46.37
2019-03-10T20:37:42.560Z,49.88
2019-03-10T20:40:16.904Z,45.55
2019-03-10T20:42:45.562Z,42.08
2019-03-10T20:45:14.310Z,47.45
2019-03-10T20:47:42.811Z,47.67
2019-03-10T20:50:14.085Z,49.30
2019-03-10T20:52:42.860Z,47.40
2019-03-10T20:55:12.526Z,51.40
2019-03-10T20:57:40.994Z,46.33
2019-03-10T21:00:27.281Z,44.67
2019-03-10T21:02:55.821Z,52.13
2019-03-10T21:05:24.297Z,49.13
2019-03-10T21:07:52.955Z,51.83
2019-03-10T21:10:23.418Z,59.13
2019-03-10T21:12:51.994Z,51.65
2019-03-10T21:15:21.551Z,53.75
2019-03-10T21:17:50.215Z,48.35
2019-03-10T21:20:20.678Z,52.98
2019-03-10T21:22:49.254Z,52.62
2019-03-10T21:25:20.420Z,52.75
2019-03-10T21:27:48.992Z,55.95
2019-03-10T21:30:19.946Z,61.00
2019-03-10T21:32:48.416Z,55.73
2019-03-10T21:35:18.129Z,57.33
2019-03-10T21:37:46.917Z,49.65
2019-03-10T21:40:23.431Z,53.98
2019-03-10T21:42:51.980Z,55.85
2019-03-10T21:45:20.506Z,59.98
2019-03-10T21:47:49.023Z,56.53
2019-03-10T21:50:18.342Z,49.30
2019-03-10T21:52:46.800Z,53.23
2019-03-10T21:55:16.049Z,54.00
2019-03-10T21:57:44.578Z,56.90
2019-03-10T22:00:20.934Z,52.17
2019-03-10T22:02:49.425Z,57.95
2019-03-10T22:05:18.163Z,57.43
2019-03-10T22:07:46.685Z,57.65
2019-03-10T22:10:27.283Z,62.62
2019-03-10T22:12:51.570Z,54.83
2019-03-10T22:15:23.071Z,52.08
2019-03-10T22:17:51.569Z,54.33
2019-03-10T22:20:20.494Z,57.05
2019-03-10T22:22:50.004Z,60.70
2019-03-10T22:25:18.670Z,52.73
2019-03-10T22:27:47.166Z,50.67
2019-03-10T22:30:20.795Z,48.33
2019-03-10T22:32:49.287Z,52.90
2019-03-10T22:35:17.850Z,56.30
2019-03-10T22:37:46.384Z,55.15
2019-03-10T22:40:17.120Z,54.85
2019-03-10T22:42:45.676Z,60.78
2019-03-10T22:45:18.147Z,52.55
2019-03-10T22:47:46.702Z,55.70
2019-03-10T22:50:17.183Z,56.77
2019-03-10T22:52:45.818Z,57.43
2019-03-10T22:55:14.930Z,51.95
2019-03-10T22:57:43.537Z,54.05
2019-03-10T23:00:27.689Z,58.28
2019-03-10T23:02:56.131Z,55.40
2019-03-10T23:05:24.644Z,58.10
2019-03-10T23:07:53.172Z,57.13
2019-03-10T23:10:21.679Z,58.63
2019-03-10T23:12:50.267Z,56.58
2019-03-10T23:15:18.747Z,53.68
2019-03-10T23:17:47.232Z,56.83
2019-03-10T23:20:16.351Z,59.25
2019-03-10T23:22:44.855Z,57.05
2019-03-10T23:25:13.395Z,67.05
2019-03-10T23:27:41.935Z,60.15
2019-03-10T23:30:13.672Z,56.13
2019-03-10T23:32:42.163Z,58.48
2019-03-10T23:35:10.656Z,56.23
2019-03-10T23:37:39.134Z,49.95
2019-03-10T23:40:12.423Z,54.08
2019-03-10T23:42:40.901Z,49.98
2019-03-10T23:45:12.296Z,63.83
2019-03-10T23:47:40.776Z,71.15
2019-03-10T23:50:10.990Z,55.23
2019-03-10T23:52:39.480Z,57.17
2019-03-10T23:55:09.694Z,58.75
2019-03-10T23:57:38.195Z,60.83
